MNMG

Details ICAO MNMG (MGA)
Name Augusto C. Sandino Int'l
Region Nicaragua
Timezone America/Managua (UTC-6.0)
Plans Departing 160
Arriving 160
Stats Elevation 192 ft / 59 m (AMSL)
Location 12.141600° -86.168300°
Runways 1
Magnetic Variation 1.088° W
Sunrise 2018-12-15 11:58:44 UTC / 2018-12-15 05:58:44 Local
Sunset 2018-12-15 23:23:42 UTC / 2018-12-15 17:23:42 Local
Advertisement - Login to hide

Runways

ID Width Length Bearing (true/mag) Surface Threshold Overrun Markings Lighting
10 148 ft / 45 m 8,019 ft / 2,444 m 96.54° / 97.63° ASPHALT 0 ft / 0 m 85 ft / 26 m PREC-APP EDGE THRESHOLD ALSF-I
28 148 ft / 45 m 8,019 ft / 2,444 m 276.55° / 277.63° ASPHALT 0 ft / 0 m 92 ft / 28 m APP EDGE THRESHOLD ALSF-I

Approach Navaids

Runway Type Ident Frequency Range Bearing (true/mag) Slope Elevation
10 LOC-ILS IMGA 109.10 MHz 18 nm / 33 km 96.54° / 97.63° - 192 ft / 59 m (AMSL)
10 GS IMGA 109.10 MHz 10 nm / 19 km 96.54° / 97.63° 3.10° 192 ft / 59 m (AMSL)
10 DME IMGA 109.10 MHz 18 nm / 33 km - - 194 ft / 59 m (AMSL)

Map

Weather


0- 5 10 15 20 25 30 35+ Temperature / °C

Clouds and Precipitation
Forecast for 2018-12-15 06:00 UTC. Updated 5 hours ago

Ground ~20,000 ft ~40,000 ft Winds

METAR

MNMG 150700Z 17006KT 9999 FEW020 SCT070 24/22 Q1012 A2990 NOSIG

TAF

Not found

Frequencies

Ground 121.90 MHz
Tower 118.10 MHz
Recorded 126.90 MHz RDO
Warning: Do not use this data for real-world aviation or navigation. No guarantee of current accuracy is given.